Superfast Canarias — 9HA3275 — position and weather

sailwx.info

Track history (hours):
 
Tides and Currents Weather Stations Pressure Air Temp Water Temp Dewpoint Dewpoint Depression Visibility Wind Speed Wind Dir Waves Ship Positions

Superfast Canarias

Last reported at 2018-Feb-19 15:58 UTC. Time now 2018-Feb-19 16:04 UTC.
Position N 45°26' E 012°15'.

Length 185 m; draft 6.8 m.

Type: Cargo ship. MMSI: 224665000.

Date/timePositionNaut miles runAvg speedWind from/ knotsBaromVisibWave heightAir tempDewpointWater temp
2018-Feb-19 15:58N 45°26' E 012°15'0 0.0
2018-Feb-19 15:28N 45°26' E 012°15'0 0.1
2018-Feb-19 15:01N 45°25' E 012°16'3 6.7
2018-Feb-19 14:29N 45°22' E 012°15'4 8.3
2018-Feb-19 14:00N 45°20' E 012°20'611.9
2018-Feb-19 13:30N 45°18' E 012°28'816.1
2018-Feb-19 13:00N 45°13' E 012°37'816.0
2018-Feb-19 12:30N 45°09' E 012°46'816.0
2018-Feb-19 12:00N 45°05' E 012°57'816.3
2018-Feb-19 11:30N 45°01' E 013°07'815.6
2018-Feb-19 11:00N 44°58' E 013°17'815.2
2018-Feb-19 10:30N 44°53' E 013°25'815.8
2018-Feb-19 10:00N 44°46' E 013°31'815.9
2018-Feb-19 09:30N 44°39' E 013°37'  
2018-Feb-17 03:45N 39°48' E 019°15'517.7
2018-Feb-17 03:27N 39°52' E 019°10'1017.4
2018-Feb-17 02:51N 40°00' E 019°01'617.4
2018-Feb-17 02:30N 40°05' E 018°56'1917.6
2018-Feb-17 01:25N 40°19' E 018°40'1217.7
2018-Feb-17 00:43N 40°29' E 018°29'418.1
2018-Feb-17 00:29N 40°32' E 018°26'1018.2
2018-Feb-16 23:55N 40°40' E 018°17'1418.1
2018-Feb-16 23:10N 40°47' E 018°02'318.1
2018-Feb-16 23:00N 40°48' E 017°58'918.1
2018-Feb-16 22:30N 40°52' E 017°48'918.2
2018-Feb-16 21:59N 40°57' E 017°37'30113.7
2018-Feb-15 23:58N 44°39' E 012°60'1017.8
2018-Feb-15 23:26N 44°48' E 012°55'818.0
2018-Feb-15 22:58N 44°55' E 012°50'917.9
2018-Feb-15 22:28N 45°04' E 012°44'917.4
2018-Feb-15 21:57N 45°10' E 012°35'817.3
2018-Feb-15 21:30N 45°16' E 012°28'713.1
2018-Feb-15 21:00N 45°20' E 012°21'4 8.4
2018-Feb-15 20:30N 45°22' E 012°15'3 6.8
2018-Feb-15 19:59N 45°26' E 012°15'0 0.0
2018-Feb-15 19:29N 45°26' E 012°15'0 0.0
2018-Feb-15 18:59N 45°26' E 012°15'0 0.0
2018-Feb-15 18:29N 45°26' E 012°15'0 0.0
2018-Feb-15 17:59N 45°26' E 012°15'0 0.0
2018-Feb-15 17:29N 45°26' E 012°15'0 0.0
2018-Feb-15 16:59N 45°26' E 012°15'0 0.0
2018-Feb-15 16:29N 45°26' E 012°15'0 0.0
2018-Feb-15 15:59N 45°26' E 012°15'0 0.0
2018-Feb-15 15:29N 45°26' E 012°15'0 0.0
2018-Feb-15 14:59N 45°26' E 012°15'0 0.0
2018-Feb-15 14:29N 45°26' E 012°15'0 0.0
2018-Feb-15 13:59N 45°26' E 012°15'0 0.0
2018-Feb-15 13:29N 45°26' E 012°15'0 0.0
2018-Feb-15 12:59N 45°26' E 012°15'0 0.0
2018-Feb-15 12:29N 45°26' E 012°15'0 0.0
2018-Feb-15 11:59N 45°26' E 012°15'0 0.0
2018-Feb-15 11:29N 45°26' E 012°15'0 0.0
2018-Feb-15 10:59N 45°26' E 012°15'0 0.0
2018-Feb-15 10:29N 45°26' E 012°15'0 0.2
2018-Feb-15 10:00N 45°26' E 012°16'5 9.0
2018-Feb-15 09:30N 45°21' E 012°16'510.0
2018-Feb-15 09:00N 45°20' E 012°23'714.9
2018-Feb-15 08:30N 45°17' E 012°32'917.5
2018-Feb-15 08:00N 45°11' E 012°42'917.6
2018-Feb-15 07:30N 45°06' E 012°52'917.6
2018-Feb-15 07:00N 45°02' E 013°03'917.6
2018-Feb-15 06:30N 44°59' E 013°14'917.9
2018-Feb-15 06:01N 44°53' E 013°25'918.1
2018-Feb-15 05:30N 44°46' E 013°32'918.3
2018-Feb-15 05:00N 44°38' E 013°39'2018.4
2018-Feb-15 03:56N 44°22' E 013°54'  
2018-Feb-11 16:22N 44°40' E 012°60'617.2
2018-Feb-11 16:00N 44°45' E 012°57'1917.4
2018-Feb-11 14:56N 45°02' E 012°45'717.0
2018-Feb-11 14:29N 45°08' E 012°38'816.7
2018-Feb-11 14:00N 45°14' E 012°30'917.5
2018-Feb-11 13:30N 45°20' E 012°21'5 9.3
2018-Feb-11 12:59N 45°22' E 012°15'4 7.1
2018-Feb-11 12:30N 45°26' E 012°15'0 0.0
2018-Feb-11 11:58N 45°26' E 012°15'0 0.0
2018-Feb-11 11:28N 45°26' E 012°15'0 0.0
2018-Feb-11 10:58N 45°26' E 012°15'0 0.0
2018-Feb-11 10:28N 45°26' E 012°15'0 0.0
2018-Feb-11 09:58N 45°26' E 012°15'0 0.0
2018-Feb-11 09:28N 45°26' E 012°15'0 0.0
2018-Feb-11 08:58N 45°26' E 012°15'0 0.0
2018-Feb-11 08:28N 45°26' E 012°15'0 0.0
2018-Feb-11 07:58N 45°26' E 012°15'0 0.0
2018-Feb-11 07:28N 45°26' E 012°15'0 0.0
2018-Feb-11 06:58N 45°26' E 012°15'0 0.0
2018-Feb-11 06:28N 45°26' E 012°15'0 0.0
2018-Feb-11 05:58N 45°26' E 012°15'0 0.0
2018-Feb-11 05:28N 45°26' E 012°15'0 0.0
2018-Feb-11 04:58N 45°26' E 012°15'0 0.0
2018-Feb-11 04:28N 45°26' E 012°15'0 0.0
2018-Feb-11 03:58N 45°26' E 012°15'0 0.0
2018-Feb-11 03:28N 45°26' E 012°15'0 0.0
2018-Feb-11 02:58N 45°26' E 012°15'0 0.0
2018-Feb-11 02:28N 45°26' E 012°15'0 0.0
2018-Feb-11 01:58N 45°26' E 012°15'0 0.0
2018-Feb-11 01:28N 45°26' E 012°15'0 0.0
2018-Feb-11 00:58N 45°26' E 012°15'0 0.0
2018-Feb-11 00:28N 45°26' E 012°15'0 0.0
2018-Feb-10 23:58N 45°26' E 012°15'0 0.0
2018-Feb-10 23:28N 45°26' E 012°15'0 0.0
2018-Feb-10 22:58N 45°26' E 012°15'0 0.0
2018-Feb-10 22:28N 45°26' E 012°15'0 0.0
2018-Feb-10 21:58N 45°26' E 012°15'0 0.0
2018-Feb-10 21:28N 45°26' E 012°15'0 0.0
2018-Feb-10 20:58N 45°26' E 012°15'0 0.0
2018-Feb-10 20:28N 45°26' E 012°15'0 0.0
2018-Feb-10 19:58N 45°26' E 012°15'0 0.0
2018-Feb-10 19:28N 45°26' E 012°15'0 0.0
2018-Feb-10 18:58N 45°26' E 012°15'0 0.0
2018-Feb-10 18:28N 45°26' E 012°15'0 0.0
2018-Feb-10 17:58N 45°26' E 012°15'0 0.0
2018-Feb-10 17:28N 45°26' E 012°15'0 0.0
2018-Feb-10 16:58N 45°26' E 012°15'0 0.0
2018-Feb-10 16:28N 45°26' E 012°15'0 0.0
2018-Feb-10 15:58N 45°26' E 012°15'0 0.0
2018-Feb-10 15:28N 45°26' E 012°15'0 0.0
2018-Feb-10 14:58N 45°26' E 012°15'0 0.0
2018-Feb-10 14:28N 45°26' E 012°15'0 0.7
2018-Feb-10 14:00N 45°25' E 012°16'4 8.8
2018-Feb-10 13:30N 45°21' E 012°16'5 9.8
2018-Feb-10 13:00N 45°20' E 012°23'2 3.5
2018-Feb-10 12:29N 45°22' E 012°25'0 0.0
2018-Feb-10 11:59N 45°22' E 012°25'0 0.0
2018-Feb-10 11:29N 45°22' E 012°25'0 0.0
2018-Feb-10 10:59N 45°22' E 012°25'0 0.0
2018-Feb-10 10:29N 45°22' E 012°25'0 0.0
2018-Feb-10 09:59N 45°22' E 012°25'0 0.0
2018-Feb-10 09:29N 45°22' E 012°25'0 0.0
2018-Feb-10 08:59N 45°22' E 012°25'0 0.0
2018-Feb-10 08:29N 45°22' E 012°25'0 0.0
2018-Feb-10 07:59N 45°22' E 012°25'0 0.0
2018-Feb-10 07:29N 45°22' E 012°25'0 0.2
2018-Feb-10 07:00N 45°22' E 012°25'613.0
2018-Feb-10 06:30N 45°17' E 012°31'815.6
2018-Feb-10 06:00N 45°12' E 012°40'815.6
2018-Feb-10 05:30N 45°08' E 012°49'815.7
2018-Feb-10 05:00N 45°05' E 012°59'815.6
2018-Feb-10 04:30N 45°01' E 013°09'815.6
2018-Feb-10 04:00N 44°57' E 013°18'815.4
2018-Feb-10 03:31N 44°52' E 013°26'815.7
2018-Feb-10 03:00N 44°45' E 013°32'815.8
2018-Feb-10 02:30N 44°39' E 013°38'815.7
2018-Feb-10 01:59N 44°32' E 013°44'715.7
2018-Feb-10 01:30N 44°25' E 013°50'815.8
2018-Feb-10 01:00N 44°19' E 013°56'815.7
2018-Feb-10 00:30N 44°12' E 014°03'  
Track history (hours):
 
Tides and Currents Weather Stations Pressure Air Temp Water Temp Dewpoint Dewpoint Depression Visibility Wind Speed Wind Dir Waves Ship Positions

Superfast Canarias

Last reported at 2018-Feb-19 15:58 UTC. Time now 2018-Feb-19 16:04 UTC.
Position N 45°26' E 012°15'.

Length 185 m; draft 6.8 m.

Type: Cargo ship. MMSI: 224665000.

Date/timePositionNaut miles runAvg speedWind from/ knotsBaromVisibWave heightAir tempDewpointWater temp
2018-Feb-19 15:58N 45°26' E 012°15'0 0.0
2018-Feb-19 15:28N 45°26' E 012°15'0 0.1
2018-Feb-19 15:01N 45°25' E 012°16'3 6.7
2018-Feb-19 14:29N 45°22' E 012°15'4 8.3
2018-Feb-19 14:00N 45°20' E 012°20'611.9
2018-Feb-19 13:30N 45°18' E 012°28'816.1
2018-Feb-19 13:00N 45°13' E 012°37'816.0
2018-Feb-19 12:30N 45°09' E 012°46'816.0
2018-Feb-19 12:00N 45°05' E 012°57'816.3
2018-Feb-19 11:30N 45°01' E 013°07'815.6
2018-Feb-19 11:00N 44°58' E 013°17'815.2
2018-Feb-19 10:30N 44°53' E 013°25'815.8
2018-Feb-19 10:00N 44°46' E 013°31'815.9
2018-Feb-19 09:30N 44°39' E 013°37'  
2018-Feb-17 03:45N 39°48' E 019°15'517.7
2018-Feb-17 03:27N 39°52' E 019°10'1017.4
2018-Feb-17 02:51N 40°00' E 019°01'617.4
2018-Feb-17 02:30N 40°05' E 018°56'1917.6
2018-Feb-17 01:25N 40°19' E 018°40'1217.7
2018-Feb-17 00:43N 40°29' E 018°29'418.1
2018-Feb-17 00:29N 40°32' E 018°26'1018.2
2018-Feb-16 23:55N 40°40' E 018°17'1418.1
2018-Feb-16 23:10N 40°47' E 018°02'318.1
2018-Feb-16 23:00N 40°48' E 017°58'918.1
2018-Feb-16 22:30N 40°52' E 017°48'918.2
2018-Feb-16 21:59N 40°57' E 017°37'30113.7
2018-Feb-15 23:58N 44°39' E 012°60'1017.8
2018-Feb-15 23:26N 44°48' E 012°55'818.0
2018-Feb-15 22:58N 44°55' E 012°50'917.9
2018-Feb-15 22:28N 45°04' E 012°44'917.4
2018-Feb-15 21:57N 45°10' E 012°35'817.3
2018-Feb-15 21:30N 45°16' E 012°28'713.1
2018-Feb-15 21:00N 45°20' E 012°21'4 8.4
2018-Feb-15 20:30N 45°22' E 012°15'3 6.8
2018-Feb-15 19:59N 45°26' E 012°15'0 0.0
2018-Feb-15 19:29N 45°26' E 012°15'0 0.0
2018-Feb-15 18:59N 45°26' E 012°15'0 0.0
2018-Feb-15 18:29N 45°26' E 012°15'0 0.0
2018-Feb-15 17:59N 45°26' E 012°15'0 0.0
2018-Feb-15 17:29N 45°26' E 012°15'0 0.0
2018-Feb-15 16:59N 45°26' E 012°15'0 0.0
2018-Feb-15 16:29N 45°26' E 012°15'0 0.0
2018-Feb-15 15:59N 45°26' E 012°15'0 0.0
2018-Feb-15 15:29N 45°26' E 012°15'0 0.0
2018-Feb-15 14:59N 45°26' E 012°15'0 0.0
2018-Feb-15 14:29N 45°26' E 012°15'0 0.0
2018-Feb-15 13:59N 45°26' E 012°15'0 0.0
2018-Feb-15 13:29N 45°26' E 012°15'0 0.0
2018-Feb-15 12:59N 45°26' E 012°15'0 0.0
2018-Feb-15 12:29N 45°26' E 012°15'0 0.0
2018-Feb-15 11:59N 45°26' E 012°15'0 0.0
2018-Feb-15 11:29N 45°26' E 012°15'0 0.0
2018-Feb-15 10:59N 45°26' E 012°15'0 0.0
2018-Feb-15 10:29N 45°26' E 012°15'0 0.2
2018-Feb-15 10:00N 45°26' E 012°16'5 9.0
2018-Feb-15 09:30N 45°21' E 012°16'510.0
2018-Feb-15 09:00N 45°20' E 012°23'714.9
2018-Feb-15 08:30N 45°17' E 012°32'917.5
2018-Feb-15 08:00N 45°11' E 012°42'917.6
2018-Feb-15 07:30N 45°06' E 012°52'917.6
2018-Feb-15 07:00N 45°02' E 013°03'917.6
2018-Feb-15 06:30N 44°59' E 013°14'917.9
2018-Feb-15 06:01N 44°53' E 013°25'918.1
2018-Feb-15 05:30N 44°46' E 013°32'918.3
2018-Feb-15 05:00N 44°38' E 013°39'2018.4
2018-Feb-15 03:56N 44°22' E 013°54'  
2018-Feb-11 16:22N 44°40' E 012°60'617.2
2018-Feb-11 16:00N 44°45' E 012°57'1917.4
2018-Feb-11 14:56N 45°02' E 012°45'717.0
2018-Feb-11 14:29N 45°08' E 012°38'816.7
2018-Feb-11 14:00N 45°14' E 012°30'917.5
2018-Feb-11 13:30N 45°20' E 012°21'5 9.3
2018-Feb-11 12:59N 45°22' E 012°15'4 7.1
2018-Feb-11 12:30N 45°26' E 012°15'0 0.0
2018-Feb-11 11:58N 45°26' E 012°15'0 0.0
2018-Feb-11 11:28N 45°26' E 012°15'0 0.0
2018-Feb-11 10:58N 45°26' E 012°15'0 0.0
2018-Feb-11 10:28N 45°26' E 012°15'0 0.0
2018-Feb-11 09:58N 45°26' E 012°15'0 0.0
2018-Feb-11 09:28N 45°26' E 012°15'0 0.0
2018-Feb-11 08:58N 45°26' E 012°15'0 0.0
2018-Feb-11 08:28N 45°26' E 012°15'0 0.0
2018-Feb-11 07:58N 45°26' E 012°15'0 0.0
2018-Feb-11 07:28N 45°26' E 012°15'0 0.0
2018-Feb-11 06:58N 45°26' E 012°15'0 0.0
2018-Feb-11 06:28N 45°26' E 012°15'0 0.0
2018-Feb-11 05:58N 45°26' E 012°15'0 0.0
2018-Feb-11 05:28N 45°26' E 012°15'0 0.0
2018-Feb-11 04:58N 45°26' E 012°15'0 0.0
2018-Feb-11 04:28N 45°26' E 012°15'0 0.0
2018-Feb-11 03:58N 45°26' E 012°15'0 0.0
2018-Feb-11 03:28N 45°26' E 012°15'0 0.0
2018-Feb-11 02:58N 45°26' E 012°15'0 0.0
2018-Feb-11 02:28N 45°26' E 012°15'0 0.0
2018-Feb-11 01:58N 45°26' E 012°15'0 0.0
2018-Feb-11 01:28N 45°26' E 012°15'0 0.0
2018-Feb-11 00:58N 45°26' E 012°15'0 0.0
2018-Feb-11 00:28N 45°26' E 012°15'0 0.0
2018-Feb-10 23:58N 45°26' E 012°15'0 0.0
2018-Feb-10 23:28N 45°26' E 012°15'0 0.0
2018-Feb-10 22:58N 45°26' E 012°15'0 0.0
2018-Feb-10 22:28N 45°26' E 012°15'0 0.0
2018-Feb-10 21:58N 45°26' E 012°15'0 0.0
2018-Feb-10 21:28N 45°26' E 012°15'0 0.0
2018-Feb-10 20:58N 45°26' E 012°15'0 0.0
2018-Feb-10 20:28N 45°26' E 012°15'0 0.0
2018-Feb-10 19:58N 45°26' E 012°15'0 0.0
2018-Feb-10 19:28N 45°26' E 012°15'0 0.0
2018-Feb-10 18:58N 45°26' E 012°15'0 0.0
2018-Feb-10 18:28N 45°26' E 012°15'0 0.0
2018-Feb-10 17:58N 45°26' E 012°15'0 0.0
2018-Feb-10 17:28N 45°26' E 012°15'0 0.0
2018-Feb-10 16:58N 45°26' E 012°15'0 0.0
2018-Feb-10 16:28N 45°26' E 012°15'0 0.0
2018-Feb-10 15:58N 45°26' E 012°15'0 0.0
2018-Feb-10 15:28N 45°26' E 012°15'0 0.0
2018-Feb-10 14:58N 45°26' E 012°15'0 0.0
2018-Feb-10 14:28N 45°26' E 012°15'0 0.7
2018-Feb-10 14:00N 45°25' E 012°16'4 8.8
2018-Feb-10 13:30N 45°21' E 012°16'5 9.8
2018-Feb-10 13:00N 45°20' E 012°23'2 3.5
2018-Feb-10 12:29N 45°22' E 012°25'0 0.0
2018-Feb-10 11:59N 45°22' E 012°25'0 0.0
2018-Feb-10 11:29N 45°22' E 012°25'0 0.0
2018-Feb-10 10:59N 45°22' E 012°25'0 0.0
2018-Feb-10 10:29N 45°22' E 012°25'0 0.0
2018-Feb-10 09:59N 45°22' E 012°25'0 0.0
2018-Feb-10 09:29N 45°22' E 012°25'0 0.0
2018-Feb-10 08:59N 45°22' E 012°25'0 0.0
2018-Feb-10 08:29N 45°22' E 012°25'0 0.0
2018-Feb-10 07:59N 45°22' E 012°25'0 0.0
2018-Feb-10 07:29N 45°22' E 012°25'0 0.2
2018-Feb-10 07:00N 45°22' E 012°25'613.0
2018-Feb-10 06:30N 45°17' E 012°31'815.6
2018-Feb-10 06:00N 45°12' E 012°40'815.6
2018-Feb-10 05:30N 45°08' E 012°49'815.7
2018-Feb-10 05:00N 45°05' E 012°59'815.6
2018-Feb-10 04:30N 45°01' E 013°09'815.6
2018-Feb-10 04:00N 44°57' E 013°18'815.4
2018-Feb-10 03:31N 44°52' E 013°26'815.7
2018-Feb-10 03:00N 44°45' E 013°32'815.8
2018-Feb-10 02:30N 44°39' E 013°38'815.7
2018-Feb-10 01:59N 44°32' E 013°44'715.7
2018-Feb-10 01:30N 44°25' E 013°50'815.8
2018-Feb-10 01:00N 44°19' E 013°56'815.7
2018-Feb-10 00:30N 44°12' E 014°03'  

Dump ship's entire track history